createdAt,value
2018-12-14T00:02:16.886Z,1.42
2018-12-14T00:04:49.960Z,1.39
2018-12-14T00:07:22.679Z,1.36
2018-12-14T00:09:55.328Z,1.36
2018-12-14T00:12:29.562Z,1.36
2018-12-14T00:15:05.889Z,1.33
2018-12-14T00:17:39.588Z,1.34
2018-12-14T00:20:12.128Z,1.34
2018-12-14T00:22:46.184Z,1.39
2018-12-14T00:25:18.944Z,1.46
2018-12-14T00:27:51.747Z,1.49
2018-12-14T00:30:24.700Z,1.43
2018-12-14T00:32:57.503Z,1.39
2018-12-14T00:35:30.949Z,1.36
2018-12-14T00:38:05.077Z,1.33
2018-12-14T00:40:38.262Z,1.33
2018-12-14T00:43:11.537Z,1.33
2018-12-14T00:45:46.250Z,1.39
2018-12-14T00:48:22.369Z,1.43
2018-12-14T00:50:54.931Z,1.40
2018-12-14T00:53:30.523Z,1.38
2018-12-14T00:56:05.586Z,1.36
2018-12-14T00:58:38.239Z,1.36
2018-12-14T01:01:11.132Z,1.36
2018-12-14T01:03:44.733Z,1.38
2018-12-14T01:06:17.363Z,1.38
2018-12-14T01:08:50.396Z,1.37
2018-12-14T01:11:22.880Z,1.35
2018-12-14T01:13:55.652Z,1.35
2018-12-14T01:16:28.648Z,1.36
2018-12-14T01:19:01.283Z,1.35
2018-12-14T01:21:34.079Z,1.33
2018-12-14T01:24:07.048Z,1.33
2018-12-14T01:26:40.680Z,1.34
2018-12-14T01:29:13.224Z,1.34
2018-12-14T01:31:46.431Z,1.33
2018-12-14T01:34:19.700Z,1.34
2018-12-14T01:36:53.353Z,1.36
2018-12-14T01:39:26.435Z,1.38
2018-12-14T01:42:04.678Z,1.38
2018-12-14T01:44:38.581Z,1.47
2018-12-14T01:47:14.474Z,1.48
2018-12-14T01:49:49.254Z,1.44
2018-12-14T01:52:22.380Z,1.48
2018-12-14T01:54:56.383Z,1.53
2018-12-14T01:57:29.334Z,1.56
2018-12-14T02:00:04.002Z,1.55
2018-12-14T02:02:38.063Z,1.54
2018-12-14T02:05:11.156Z,1.55
2018-12-14T02:07:43.758Z,1.55
2018-12-14T02:10:16.920Z,1.60
2018-12-14T02:12:51.134Z,1.61
2018-12-14T02:15:23.763Z,1.59
2018-12-14T02:17:56.756Z,1.55
2018-12-14T02:20:29.725Z,1.57
2018-12-14T02:23:02.387Z,1.63
2018-12-14T02:25:35.394Z,1.67
2018-12-14T02:28:08.399Z,1.65
2018-12-14T02:30:44.532Z,1.66
2018-12-14T02:33:17.613Z,1.63
2018-12-14T02:35:50.296Z,1.68
2018-12-14T02:38:22.948Z,1.64
2018-12-14T02:40:55.875Z,1.61
2018-12-14T02:43:28.556Z,1.61
2018-12-14T02:46:01.275Z,1.59
2018-12-14T02:48:34.514Z,1.58
2018-12-14T02:51:07.219Z,1.64
2018-12-14T02:53:39.817Z,1.66
2018-12-14T02:56:12.820Z,1.57
2018-12-14T02:58:48.813Z,1.53
2018-12-14T03:01:21.643Z,1.54
2018-12-14T03:03:55.081Z,1.53
2018-12-14T03:06:29.379Z,1.58
2018-12-14T03:09:02.993Z,1.53
2018-12-14T03:11:36.870Z,1.51
2018-12-14T03:14:09.376Z,1.51
2018-12-14T03:16:42.940Z,1.47
2018-12-14T03:19:17.162Z,1.44
2018-12-14T03:21:49.699Z,1.44
2018-12-14T03:24:22.375Z,1.47
2018-12-14T03:26:56.450Z,1.47
2018-12-14T03:29:29.675Z,1.45
2018-12-14T03:32:02.270Z,1.43
2018-12-14T03:34:36.894Z,1.42
2018-12-14T03:37:10.266Z,1.44
2018-12-14T03:39:43.468Z,1.45
2018-12-14T03:42:16.536Z,1.44
2018-12-14T03:44:49.899Z,1.42
2018-12-14T03:47:22.744Z,1.42
2018-12-14T03:49:56.871Z,1.40
2018-12-14T03:52:29.499Z,1.38
2018-12-14T03:55:02.959Z,1.35
2018-12-14T03:57:35.828Z,1.35
2018-12-14T04:00:09.473Z,1.34
2018-12-14T04:02:42.258Z,1.34
2018-12-14T04:05:17.571Z,1.35
2018-12-14T04:07:51.238Z,1.33
2018-12-14T04:10:24.630Z,1.31
2018-12-14T04:13:00.813Z,1.30
2018-12-14T04:15:33.559Z,1.29
2018-12-14T04:18:06.327Z,1.28
2018-12-14T04:20:40.260Z,1.27
2018-12-14T04:23:12.896Z,1.25
2018-12-14T04:25:45.680Z,1.24
2018-12-14T04:28:18.694Z,1.23
2018-12-14T04:30:51.200Z,1.20
2018-12-14T04:33:24.000Z,1.24
2018-12-14T04:35:57.164Z,1.27
2018-12-14T04:38:30.033Z,1.28
2018-12-14T04:41:02.803Z,1.23
2018-12-14T04:43:35.809Z,1.19
2018-12-14T04:46:09.003Z,1.24
2018-12-14T04:48:41.682Z,1.26
2018-12-14T04:51:17.104Z,1.27
2018-12-14T04:53:49.967Z,1.36
2018-12-14T04:56:22.539Z,1.41
2018-12-14T04:58:55.453Z,1.39
2018-12-14T05:01:28.105Z,1.45
2018-12-14T05:04:00.765Z,1.46
2018-12-14T05:06:33.916Z,1.54
2018-12-14T05:09:10.559Z,1.55
2018-12-14T05:11:43.113Z,1.56
2018-12-14T05:14:16.556Z,1.55
2018-12-14T05:16:49.081Z,1.50
2018-12-14T05:19:21.695Z,1.53
2018-12-14T05:21:54.867Z,1.51
2018-12-14T05:24:29.272Z,1.52
2018-12-14T05:27:02.322Z,1.45
2018-12-14T05:29:35.353Z,1.39
2018-12-14T05:32:08.560Z,1.41
2018-12-14T05:34:41.240Z,1.34
2018-12-14T05:37:14.190Z,1.38
2018-12-14T05:39:47.441Z,1.41
2018-12-14T05:42:20.802Z,1.36
2018-12-14T05:44:53.901Z,1.30
2018-12-14T05:47:26.675Z,1.27
2018-12-14T05:49:59.329Z,1.26
2018-12-14T05:52:32.280Z,1.27
2018-12-14T05:55:05.509Z,1.27
2018-12-14T05:57:38.079Z,1.27
2018-12-14T06:00:15.000Z,1.31
2018-12-14T06:02:50.001Z,1.36
2018-12-14T06:05:26.543Z,1.31
2018-12-14T06:08:00.263Z,1.32
2018-12-14T06:10:33.618Z,1.29
2018-12-14T06:13:09.039Z,1.27
2018-12-14T06:15:43.551Z,1.26
2018-12-14T06:18:16.879Z,1.25
2018-12-14T06:20:50.405Z,1.23
2018-12-14T06:23:23.742Z,1.21
2018-12-14T06:25:56.785Z,1.20
2018-12-14T06:28:30.424Z,1.19
2018-12-14T06:31:03.703Z,1.18
2018-12-14T06:33:36.930Z,1.19
2018-12-14T06:36:09.516Z,1.18
2018-12-14T06:38:45.016Z,1.19
2018-12-14T06:41:18.650Z,1.22
2018-12-14T06:43:53.637Z,1.22
2018-12-14T06:46:26.364Z,1.24
2018-12-14T06:49:02.073Z,1.24
2018-12-14T06:51:37.583Z,1.24
2018-12-14T06:54:10.454Z,1.26
2018-12-14T06:56:44.948Z,1.25
2018-12-14T06:59:20.579Z,1.26
2018-12-14T07:01:57.243Z,1.25
2018-12-14T07:04:31.356Z,1.25
2018-12-14T07:07:04.363Z,1.25
2018-12-14T07:09:36.964Z,1.23
2018-12-14T07:12:11.505Z,1.23
2018-12-14T07:14:44.552Z,1.26
2018-12-14T07:17:17.244Z,1.27
2018-12-14T07:19:50.631Z,1.29
2018-12-14T07:22:24.223Z,1.33
2018-12-14T07:24:57.406Z,1.41
2018-12-14T07:27:30.384Z,1.46
2018-12-14T07:30:07.181Z,1.48
2018-12-14T07:32:40.562Z,1.41
2018-12-14T07:35:13.377Z,1.36
2018-12-14T07:37:47.270Z,1.34
2018-12-14T07:40:20.623Z,1.34
2018-12-14T07:42:55.804Z,1.35
2018-12-14T07:45:31.496Z,1.35
2018-12-14T07:48:05.329Z,1.34
2018-12-14T07:50:39.330Z,1.35
2018-12-14T07:53:12.143Z,1.33
2018-12-14T07:55:44.877Z,1.33
2018-12-14T07:58:18.644Z,1.33
2018-12-14T08:00:52.572Z,1.33
2018-12-14T08:03:27.416Z,1.40
2018-12-14T08:06:00.356Z,1.38
2018-12-14T08:08:34.080Z,1.45
2018-12-14T08:11:09.599Z,1.41
2018-12-14T08:13:44.084Z,1.48
2018-12-14T08:16:18.054Z,1.47
2018-12-14T08:18:50.834Z,1.53
2018-12-14T08:21:23.962Z,1.48
2018-12-14T08:23:58.582Z,1.45
2018-12-14T08:26:31.422Z,1.44
2018-12-14T08:29:04.632Z,1.47
2018-12-14T08:31:37.341Z,1.46
2018-12-14T08:34:11.776Z,1.49
2018-12-14T08:36:44.915Z,1.50
2018-12-14T08:39:18.516Z,1.50
2018-12-14T08:41:51.121Z,1.52
2018-12-14T08:44:23.969Z,1.54
2018-12-14T08:46:58.879Z,1.55
2018-12-14T08:49:32.111Z,1.54
2018-12-14T08:52:06.206Z,1.55
2018-12-14T08:54:39.989Z,1.54
2018-12-14T08:57:12.721Z,1.57
2018-12-14T08:59:45.531Z,1.59
2018-12-14T09:02:18.527Z,1.61
2018-12-14T09:04:51.341Z,1.62
2018-12-14T09:07:25.264Z,1.63
2018-12-14T09:10:00.415Z,1.67
2018-12-14T09:12:33.360Z,1.74
2018-12-14T09:15:07.019Z,1.72
2018-12-14T09:17:39.989Z,1.71
2018-12-14T09:20:12.723Z,1.71
2018-12-14T09:22:46.436Z,1.70
2018-12-14T09:25:22.521Z,1.76
2018-12-14T09:27:58.906Z,1.76
2018-12-14T09:30:33.981Z,1.76
2018-12-14T09:33:08.301Z,1.79
2018-12-14T09:35:42.205Z,1.81
2018-12-14T09:38:16.094Z,1.83
2018-12-14T09:40:54.584Z,1.85
2018-12-14T09:43:28.918Z,1.88
2018-12-14T09:46:02.358Z,1.90
2018-12-14T09:48:35.680Z,1.99
2018-12-14T09:51:12.665Z,2.01
2018-12-14T09:53:47.783Z,2.02
2018-12-14T09:56:22.065Z,2.04
2018-12-14T09:58:54.654Z,2.06
2018-12-14T10:01:30.367Z,2.16
2018-12-14T10:04:04.409Z,2.27
2018-12-14T10:06:37.640Z,2.26
2018-12-14T10:09:11.171Z,2.26
2018-12-14T10:11:44.829Z,2.26
2018-12-14T10:14:21.504Z,2.27
2018-12-14T10:16:56.864Z,2.29
2018-12-14T10:19:29.505Z,2.32
2018-12-14T10:22:02.560Z,2.35
2018-12-14T10:24:35.672Z,2.38
2018-12-14T10:27:09.260Z,2.40
2018-12-14T10:29:44.184Z,2.45
2018-12-14T10:32:18.074Z,2.47
2018-12-14T10:34:54.479Z,2.52
2018-12-14T10:37:28.607Z,2.56
2018-12-14T10:40:02.842Z,2.60
2018-12-14T10:42:36.200Z,2.65
2018-12-14T10:45:18.829Z,2.68
2018-12-14T10:47:58.579Z,2.76
2018-12-14T10:50:39.217Z,2.78
2018-12-14T10:53:13.850Z,2.88
2018-12-14T10:55:46.357Z,2.90
2018-12-14T10:58:20.777Z,2.92
2018-12-14T11:00:59.425Z,2.96
2018-12-14T11:03:34.245Z,3.00
2018-12-14T11:06:07.531Z,3.03
2018-12-14T11:08:41.290Z,3.05
2018-12-14T11:11:15.281Z,3.10
2018-12-14T11:13:51.705Z,3.13
2018-12-14T11:16:24.352Z,3.19
2018-12-14T11:18:57.347Z,3.22
2018-12-14T11:21:30.002Z,3.24
2018-12-14T11:24:04.560Z,3.23
2018-12-14T11:26:37.585Z,3.27
2018-12-14T11:29:14.986Z,3.35
2018-12-14T11:31:47.843Z,3.33
2018-12-14T11:34:29.551Z,3.28
2018-12-14T11:37:04.928Z,3.31
2018-12-14T11:39:41.640Z,3.34
2018-12-14T11:42:15.164Z,3.35
2018-12-14T11:44:48.468Z,3.40
2018-12-14T11:47:28.170Z,3.43
2018-12-14T11:50:01.776Z,3.44
2018-12-14T11:52:35.316Z,3.46
2018-12-14T11:55:33.872Z,3.45
2018-12-14T11:58:12.852Z,3.42
2018-12-14T12:00:45.780Z,3.43
2018-12-14T12:03:20.732Z,3.43
2018-12-14T12:05:54.870Z,3.41
2018-12-14T12:08:30.078Z,3.42
2018-12-14T12:11:04.660Z,3.44
2018-12-14T12:13:38.309Z,3.46
2018-12-14T12:16:11.709Z,3.48
2018-12-14T12:18:46.319Z,3.46
2018-12-14T12:21:23.548Z,3.46
2018-12-14T12:23:58.308Z,3.47
2018-12-14T12:26:33.923Z,3.46
2018-12-14T12:29:09.505Z,3.47
2018-12-14T12:31:46.016Z,3.44
2018-12-14T12:34:23.414Z,3.40
2018-12-14T12:36:57.232Z,3.40
2018-12-14T12:39:32.321Z,3.41
2018-12-14T12:42:08.668Z,3.42
2018-12-14T12:44:46.634Z,3.41
2018-12-14T12:47:21.818Z,3.38
2018-12-14T12:49:58.579Z,3.38
2018-12-14T12:52:32.443Z,3.44
2018-12-14T12:55:05.724Z,3.44
2018-12-14T12:57:39.485Z,3.36
2018-12-14T13:00:14.188Z,3.29
2018-12-14T13:02:47.736Z,3.28
2018-12-14T13:05:20.703Z,3.28
2018-12-14T13:07:54.404Z,3.29
2018-12-14T13:10:28.098Z,3.28
2018-12-14T13:13:02.896Z,3.32
2018-12-14T13:15:37.081Z,3.27
2018-12-14T13:18:15.620Z,3.22
2018-12-14T13:20:49.452Z,3.23
2018-12-14T13:23:30.209Z,3.19
2018-12-14T13:26:03.803Z,3.16
2018-12-14T13:28:37.429Z,3.15
2018-12-14T13:31:10.132Z,3.11
2018-12-14T13:33:43.556Z,3.13
2018-12-14T13:36:18.688Z,3.09
2018-12-14T13:38:52.261Z,3.05
2018-12-14T13:41:24.952Z,3.03
2018-12-14T13:43:59.729Z,3.00
2018-12-14T13:46:33.981Z,2.97
2018-12-14T13:49:06.865Z,3.01
2018-12-14T13:51:40.659Z,3.01
2018-12-14T13:54:15.842Z,2.97
2018-12-14T13:56:49.464Z,2.96
2018-12-14T13:59:22.704Z,2.94
2018-12-14T14:01:57.981Z,2.93
2018-12-14T14:04:35.857Z,2.90
2018-12-14T14:07:10.096Z,2.88
2018-12-14T14:09:44.527Z,2.88
2018-12-14T14:12:19.644Z,2.84
2018-12-14T14:14:54.227Z,2.82
2018-12-14T14:17:31.303Z,2.81
2018-12-14T14:20:09.607Z,2.83
2018-12-14T14:23:00.299Z,2.89
2018-12-14T14:25:36.001Z,2.87
2018-12-14T14:28:10.783Z,2.85
2018-12-14T14:30:45.255Z,2.78
2018-12-14T14:33:19.137Z,2.75
2018-12-14T14:35:51.915Z,2.72
2018-12-14T14:38:26.344Z,2.71
2018-12-14T14:41:01.730Z,2.71
2018-12-14T14:43:39.083Z,2.67
2018-12-14T14:46:13.970Z,2.63
2018-12-14T14:48:51.935Z,2.58
2018-12-14T14:51:28.810Z,2.58
2018-12-14T14:54:05.509Z,2.55
2018-12-14T14:56:43.107Z,2.53
2018-12-14T14:59:17.517Z,2.50
2018-12-14T15:01:59.513Z,2.48
2018-12-14T15:04:33.799Z,2.45
2018-12-14T15:07:10.703Z,2.44
2018-12-14T15:09:45.781Z,2.40
2018-12-14T15:12:24.845Z,2.39
2018-12-14T15:14:58.540Z,2.36
2018-12-14T15:17:33.261Z,2.36
2018-12-14T15:20:08.424Z,2.38
2018-12-14T15:22:44.000Z,2.35
2018-12-14T15:25:18.616Z,2.32
2018-12-14T15:27:53.721Z,2.30
2018-12-14T15:30:26.695Z,2.28
2018-12-14T15:32:59.819Z,2.25
2018-12-14T15:35:33.570Z,2.27
2018-12-14T15:38:08.575Z,2.25
2018-12-14T15:40:43.937Z,2.20
2018-12-14T15:43:17.547Z,2.17
2018-12-14T15:45:51.073Z,2.13
2018-12-14T15:48:24.734Z,2.16
2018-12-14T15:51:01.147Z,2.13
2018-12-14T15:53:34.706Z,2.15
2018-12-14T15:56:12.411Z,2.17
2018-12-14T15:58:51.822Z,2.13
2018-12-14T16:01:27.208Z,2.11
2018-12-14T16:04:00.140Z,2.07
2018-12-14T16:06:34.971Z,2.04
2018-12-14T16:09:09.024Z,2.02
2018-12-14T16:11:45.352Z,2.06
2018-12-14T16:14:20.446Z,2.07
2018-12-14T16:16:54.324Z,2.13
2018-12-14T16:19:27.082Z,2.12
2018-12-14T16:22:05.645Z,2.04
2018-12-14T16:24:38.396Z,1.98
2018-12-14T16:27:12.495Z,2.01
2018-12-14T16:29:46.223Z,1.94
2018-12-14T16:32:20.801Z,1.86
2018-12-14T16:35:05.737Z,1.88
2018-12-14T16:37:43.092Z,1.80
2018-12-14T16:40:18.387Z,1.79
2018-12-14T16:42:52.781Z,1.78
2018-12-14T16:45:28.228Z,1.76
2018-12-14T16:48:01.277Z,1.73
2018-12-14T16:50:36.579Z,1.69
2018-12-14T16:53:10.384Z,1.66
2018-12-14T16:55:43.886Z,1.64
2018-12-14T16:58:18.912Z,1.61
2018-12-14T17:00:55.054Z,1.58
2018-12-14T17:03:32.617Z,1.61
2018-12-14T17:06:09.532Z,1.59
2018-12-14T17:08:45.147Z,1.56
2018-12-14T17:11:20.004Z,1.54
2018-12-14T17:13:56.372Z,1.55
2018-12-14T17:16:30.289Z,1.56
2018-12-14T17:19:04.818Z,1.56
2018-12-14T17:21:43.746Z,1.56
2018-12-14T17:24:20.894Z,1.55
2018-12-14T17:26:57.034Z,1.52
2018-12-14T17:29:31.271Z,1.52
2018-12-14T17:32:04.738Z,1.54
2018-12-14T17:34:40.460Z,1.54
2018-12-14T17:37:13.256Z,1.54
2018-12-14T17:39:48.460Z,1.51
2018-12-14T17:42:21.029Z,1.47
2018-12-14T17:44:54.944Z,1.45
2018-12-14T17:47:28.056Z,1.48
2018-12-14T17:50:01.947Z,1.50
2018-12-14T17:52:39.035Z,1.49
2018-12-14T17:55:14.655Z,1.47
2018-12-14T17:57:48.560Z,1.47
2018-12-14T18:00:22.835Z,1.49
2018-12-14T18:02:57.732Z,1.52
2018-12-14T18:05:33.471Z,1.54
2018-12-14T18:08:08.123Z,1.59
2018-12-14T18:10:41.461Z,1.62
2018-12-14T18:13:15.977Z,1.69
2018-12-14T18:15:49.314Z,1.69
2018-12-14T18:18:24.496Z,1.69
2018-12-14T18:21:07.773Z,1.68
2018-12-14T18:23:42.559Z,1.67
2018-12-14T18:26:16.190Z,1.67
2018-12-14T18:28:50.729Z,1.66
2018-12-14T18:31:27.363Z,1.69
2018-12-14T18:34:01.694Z,1.68
2018-12-14T18:36:35.888Z,1.68
2018-12-14T18:39:10.782Z,1.65
2018-12-14T18:41:49.392Z,1.63
2018-12-14T18:44:23.254Z,1.61
2018-12-14T18:46:58.013Z,1.61
2018-12-14T18:49:32.128Z,1.59
2018-12-14T18:52:04.847Z,1.57
2018-12-14T18:54:47.692Z,1.58
2018-12-14T18:57:20.653Z,1.58
2018-12-14T18:59:58.604Z,1.61
2018-12-14T19:02:40.453Z,1.61
2018-12-14T19:05:14.973Z,1.61
2018-12-14T19:07:52.002Z,1.60
2018-12-14T19:10:26.532Z,1.64
2018-12-14T19:13:10.332Z,1.62
2018-12-14T19:15:45.390Z,1.61
2018-12-14T19:18:21.833Z,1.62
2018-12-14T19:20:55.089Z,1.63
2018-12-14T19:23:31.655Z,1.61
2018-12-14T19:26:06.108Z,1.63
2018-12-14T19:28:41.398Z,1.60
2018-12-14T19:31:19.043Z,1.60
2018-12-14T19:33:54.887Z,1.58
2018-12-14T19:36:29.784Z,1.55
2018-12-14T19:39:09.473Z,1.54
2018-12-14T19:41:43.840Z,1.51
2018-12-14T19:44:19.216Z,1.51
2018-12-14T19:46:54.515Z,1.53
2018-12-14T19:49:31.074Z,1.54
2018-12-14T19:52:10.674Z,1.50
2018-12-14T19:54:51.495Z,1.47
2018-12-14T19:57:25.213Z,1.44
2018-12-14T20:00:00.986Z,1.44
2018-12-14T20:02:49.709Z,1.47
2018-12-14T20:05:22.713Z,1.44
2018-12-14T20:07:56.820Z,1.40
2018-12-14T20:10:32.714Z,1.37
2018-12-14T20:13:09.286Z,1.39
2018-12-14T20:15:42.811Z,1.35
2018-12-14T20:18:17.189Z,1.33
2018-12-14T20:20:50.433Z,1.32
2018-12-14T20:23:26.905Z,1.36
2018-12-14T20:26:16.200Z,1.38
2018-12-14T20:28:59.700Z,1.36
2018-12-14T20:31:34.467Z,1.33
2018-12-14T20:34:10.432Z,1.31
2018-12-14T20:36:47.603Z,1.28
2018-12-14T20:39:25.290Z,1.25
2018-12-14T20:42:00.190Z,1.23
2018-12-14T20:44:34.546Z,1.20
2018-12-14T20:47:15.271Z,1.19
2018-12-14T20:49:47.927Z,1.18
2018-12-14T20:52:23.863Z,1.15
2018-12-14T20:55:00.836Z,1.17
2018-12-14T20:57:35.653Z,1.19
2018-12-14T21:00:16.579Z,1.23
2018-12-14T21:02:54.641Z,1.22
2018-12-14T21:05:30.726Z,1.19
2018-12-14T21:08:03.548Z,1.17
2018-12-14T21:10:36.096Z,1.15
2018-12-14T21:13:11.599Z,1.16
2018-12-14T21:15:48.930Z,1.14
2018-12-14T21:18:23.501Z,1.14
2018-12-14T21:20:58.717Z,1.15
2018-12-14T21:23:32.014Z,1.15
2018-12-14T21:26:05.591Z,1.13
2018-12-14T21:28:40.386Z,1.12
2018-12-14T21:31:14.662Z,1.12
2018-12-14T21:33:49.431Z,1.11
2018-12-14T21:36:22.493Z,1.10
2018-12-14T21:38:55.236Z,1.09
2018-12-14T21:41:31.764Z,1.08
2018-12-14T21:44:09.867Z,1.07
2018-12-14T21:46:46.174Z,1.07
2018-12-14T21:49:20.684Z,1.06
2018-12-14T21:51:56.578Z,1.07
2018-12-14T21:54:32.212Z,1.06
2018-12-14T21:57:16.036Z,1.05
2018-12-14T21:59:51.589Z,1.04
2018-12-14T22:02:25.385Z,1.03
2018-12-14T22:04:59.639Z,1.06
2018-12-14T22:07:33.988Z,1.06
2018-12-14T22:10:10.637Z,1.06
2018-12-14T22:12:46.805Z,1.06
2018-12-14T22:15:25.247Z,1.07
2018-12-14T22:17:59.935Z,1.07
2018-12-14T22:20:41.495Z,1.07
2018-12-14T22:23:16.491Z,1.07
2018-12-14T22:25:49.949Z,1.08
2018-12-14T22:28:25.202Z,1.08
2018-12-14T22:30:59.644Z,1.10
2018-12-14T22:33:33.067Z,1.09
2018-12-14T22:36:07.103Z,1.10
2018-12-14T22:38:46.819Z,1.10
2018-12-14T22:41:20.476Z,1.14
2018-12-14T22:43:53.613Z,1.13
2018-12-14T22:46:26.644Z,1.11
2018-12-14T22:48:59.892Z,1.10
2018-12-14T22:51:37.159Z,1.11
2018-12-14T22:54:13.623Z,1.10
2018-12-14T22:56:50.946Z,1.09
2018-12-14T22:59:24.773Z,1.09
2018-12-14T23:02:00.137Z,1.08
2018-12-14T23:04:35.857Z,1.09
2018-12-14T23:07:17.210Z,1.07
2018-12-14T23:09:50.480Z,1.07
2018-12-14T23:12:26.978Z,1.07
2018-12-14T23:15:04.270Z,1.07
2018-12-14T23:17:36.985Z,1.05
2018-12-14T23:20:09.968Z,1.03
2018-12-14T23:22:43.487Z,1.02
2018-12-14T23:25:16.222Z,1.01
2018-12-14T23:27:53.537Z,0.99
2018-12-14T23:30:26.333Z,0.99
2018-12-14T23:33:00.103Z,0.98
2018-12-14T23:35:33.079Z,0.97
2018-12-14T23:38:06.716Z,0.96
2018-12-14T23:40:44.038Z,0.95
2018-12-14T23:43:32.892Z,0.94
2018-12-14T23:46:05.912Z,0.92
2018-12-14T23:48:39.913Z,0.89
2018-12-14T23:51:13.918Z,0.88
2018-12-14T23:53:47.309Z,0.87
2018-12-14T23:56:21.549Z,0.86
2018-12-14T23:58:54.938Z,0.89
